createdAt,value
2022-12-26T00:01:25.763Z,90.53
2022-12-26T00:03:53.846Z,89.32
2022-12-26T00:06:24.688Z,91.79
2022-12-26T00:08:53.714Z,90.74
2022-12-26T00:11:22.811Z,91.74
2022-12-26T00:13:55.633Z,91.79
2022-12-26T00:16:24.568Z,89.38
2022-12-26T00:18:52.793Z,89.23
2022-12-26T00:21:21.549Z,87.43
2022-12-26T00:23:49.919Z,86.96
2022-12-26T00:26:20.001Z,87.55
2022-12-26T00:28:48.407Z,88.86
2022-12-26T00:31:21.320Z,88.24
2022-12-26T00:33:49.491Z,87.10
2022-12-26T00:36:20.600Z,87.36
2022-12-26T00:38:50.698Z,90.33
2022-12-26T00:41:20.791Z,88.05
2022-12-26T00:43:48.873Z,87.10
2022-12-26T00:46:17.775Z,87.42
2022-12-26T00:48:45.995Z,87.48
2022-12-26T00:51:15.431Z,88.71
2022-12-26T00:53:43.447Z,88.20
2022-12-26T00:56:12.214Z,88.37
2022-12-26T00:58:42.043Z,89.84
2022-12-26T01:01:12.599Z,88.25
2022-12-26T01:03:41.148Z,89.31
2022-12-26T01:06:08.868Z,89.21
2022-12-26T01:08:36.693Z,87.28
2022-12-26T01:11:07.360Z,87.78
2022-12-26T01:13:36.362Z,87.61
2022-12-26T01:16:05.545Z,87.16
2022-12-26T01:18:34.930Z,89.73
2022-12-26T01:21:06.243Z,88.64
2022-12-26T01:23:34.313Z,90.05
2022-12-26T01:26:16.740Z,87.75
2022-12-26T01:28:49.254Z,89.54
2022-12-26T01:31:17.957Z,89.24
2022-12-26T01:33:46.371Z,88.93
2022-12-26T01:36:15.378Z,88.01
2022-12-26T01:38:43.528Z,88.16
2022-12-26T01:41:22.034Z,88.22
2022-12-26T01:43:59.453Z,87.46
2022-12-26T01:46:29.954Z,87.40
2022-12-26T01:49:07.636Z,87.44
2022-12-26T01:51:39.527Z,87.94
2022-12-26T01:54:39.202Z,88.59
2022-12-26T01:56:59.291Z,89.83
2022-12-26T01:59:30.878Z,88.37
2022-12-26T02:01:59.988Z,89.23
2022-12-26T02:04:53.210Z,88.64
2022-12-26T02:07:22.040Z,90.78
2022-12-26T02:09:50.136Z,89.51
2022-12-26T02:12:34.589Z,87.30
2022-12-26T02:15:10.464Z,86.59
2022-12-26T02:17:39.858Z,86.05
2022-12-26T02:20:24.913Z,86.43
2022-12-26T02:23:38.544Z,86.58
2022-12-26T02:26:29.220Z,86.15
2022-12-26T02:29:15.418Z,85.47
2022-12-26T02:32:07.508Z,86.41
2022-12-26T02:34:45.328Z,86.84
2022-12-26T02:37:20.695Z,85.98
2022-12-26T02:40:03.629Z,84.52
2022-12-26T02:42:31.482Z,86.10
2022-12-26T02:45:31.357Z,85.14
2022-12-26T02:48:20.548Z,85.56
2022-12-26T02:51:15.019Z,86.80
2022-12-26T02:54:10.290Z,86.21
2022-12-26T02:57:01.829Z,86.95
2022-12-26T02:59:59.395Z,85.55
2022-12-26T03:03:08.934Z,85.69
2022-12-26T03:06:01.259Z,86.41
2022-12-26T03:08:49.532Z,84.25
2022-12-26T03:11:36.923Z,84.33
2022-12-26T03:14:17.530Z,83.82
2022-12-26T03:17:29.457Z,84.66
2022-12-26T03:20:03.635Z,84.92
2022-12-26T03:22:38.919Z,84.48
2022-12-26T03:25:28.880Z,83.96
2022-12-26T03:27:58.638Z,83.76
2022-12-26T03:30:44.924Z,83.02
2022-12-26T03:33:31.601Z,83.79
2022-12-26T03:36:00.807Z,81.74
2022-12-26T03:38:55.363Z,80.25
2022-12-26T03:42:01.564Z,82.71
2022-12-26T03:44:56.385Z,82.61
2022-12-26T03:47:58.971Z,82.57
2022-12-26T03:50:56.531Z,81.03
2022-12-26T03:53:52.570Z,80.17
2022-12-26T03:56:48.574Z,81.06
2022-12-26T03:59:42.025Z,82.08
2022-12-26T04:02:32.229Z,83.40
2022-12-26T04:05:22.566Z,83.60
2022-12-26T04:08:18.534Z,83.30
2022-12-26T04:11:12.294Z,81.63
2022-12-26T04:14:18.023Z,81.56
2022-12-26T04:17:47.445Z,84.49
2022-12-26T04:20:33.441Z,84.32
2022-12-26T04:23:34.461Z,82.21
2022-12-26T04:26:46.985Z,84.50
2022-12-26T04:29:33.738Z,82.83
2022-12-26T04:32:38.064Z,82.28
2022-12-26T04:35:35.785Z,82.11
2022-12-26T04:38:23.659Z,83.69
2022-12-26T04:41:16.594Z,83.27
2022-12-26T04:44:03.819Z,82.12
2022-12-26T04:46:34.642Z,82.34
2022-12-26T04:49:27.259Z,82.09
2022-12-26T04:51:59.960Z,83.54
2022-12-26T04:54:28.272Z,82.29
2022-12-26T04:56:56.349Z,82.67
2022-12-26T04:59:24.500Z,83.42
2022-12-26T05:02:10.839Z,84.10
2022-12-26T05:04:57.546Z,84.26
2022-12-26T05:07:50.016Z,83.98
2022-12-26T05:10:21.199Z,85.47
2022-12-26T05:12:49.177Z,84.97
2022-12-26T05:15:16.835Z,84.07
2022-12-26T05:18:03.327Z,85.32
2022-12-26T05:20:49.584Z,86.32
2022-12-26T05:23:44.633Z,85.85
2022-12-26T05:26:40.780Z,86.75
2022-12-26T05:29:09.104Z,84.97
2022-12-26T05:31:37.406Z,84.76
2022-12-26T05:34:10.701Z,85.65
2022-12-26T05:36:51.820Z,84.63
2022-12-26T05:39:19.831Z,84.94
2022-12-26T05:41:47.871Z,84.72
2022-12-26T05:44:15.840Z,84.37
2022-12-26T05:46:43.721Z,84.55
2022-12-26T05:49:11.633Z,85.78
2022-12-26T05:51:39.128Z,84.64
2022-12-26T05:54:06.721Z,83.51
2022-12-26T05:56:34.506Z,83.63
2022-12-26T05:59:02.758Z,83.72
2022-12-26T06:01:31.019Z,84.78
2022-12-26T06:03:59.978Z,84.09
2022-12-26T06:06:28.667Z,83.19
2022-12-26T06:08:57.511Z,84.70
2022-12-26T06:11:26.894Z,84.68
2022-12-26T06:13:55.319Z,84.20
2022-12-26T06:16:23.365Z,85.08
2022-12-26T06:18:51.257Z,83.90
2022-12-26T06:21:20.440Z,83.04
2022-12-26T06:23:49.325Z,82.57
2022-12-26T06:26:17.607Z,83.02
2022-12-26T06:28:45.456Z,82.93
2022-12-26T06:31:16.143Z,84.63
2022-12-26T06:33:44.076Z,82.96
2022-12-26T06:36:14.476Z,83.05
2022-12-26T06:38:42.663Z,83.13
2022-12-26T06:41:13.425Z,83.44
2022-12-26T06:43:41.939Z,84.05
2022-12-26T06:46:15.197Z,83.27
2022-12-26T06:48:42.949Z,84.65
2022-12-26T06:51:20.234Z,85.40
2022-12-26T06:53:48.851Z,86.06
2022-12-26T06:56:22.617Z,86.75
2022-12-26T06:59:00.705Z,86.94
2022-12-26T07:01:31.109Z,87.15
2022-12-26T07:04:00.199Z,85.72
2022-12-26T07:06:31.450Z,84.65
2022-12-26T07:09:08.572Z,84.59
2022-12-26T07:11:38.506Z,84.66
2022-12-26T07:14:06.148Z,86.65
2022-12-26T07:16:38.347Z,88.36
2022-12-26T07:19:07.465Z,88.50
2022-12-26T07:21:40.505Z,87.02
2022-12-26T07:24:17.032Z,86.11
2022-12-26T07:26:45.616Z,88.38
2022-12-26T07:29:14.851Z,87.36
2022-12-26T07:31:42.865Z,85.19
2022-12-26T07:34:10.623Z,86.22
2022-12-26T07:36:38.515Z,85.69
2022-12-26T07:39:06.252Z,85.18
2022-12-26T07:41:53.932Z,86.21
2022-12-26T07:44:21.839Z,85.47
2022-12-26T07:46:49.667Z,84.50
2022-12-26T07:49:17.786Z,84.18
2022-12-26T07:51:45.655Z,83.67
2022-12-26T07:54:13.858Z,81.83
2022-12-26T07:56:42.140Z,83.51
2022-12-26T07:59:17.425Z,83.18
2022-12-26T08:01:46.044Z,83.29
2022-12-26T08:04:14.377Z,84.83
2022-12-26T08:06:41.919Z,83.68
2022-12-26T08:09:13.505Z,83.38
2022-12-26T08:11:41.779Z,81.85
2022-12-26T08:14:11.949Z,82.65
2022-12-26T08:16:39.942Z,83.93
2022-12-26T08:19:10.507Z,85.34
2022-12-26T08:21:39.018Z,84.69
2022-12-26T08:24:06.729Z,84.66
2022-12-26T08:26:34.586Z,81.84
2022-12-26T08:29:02.468Z,81.31
2022-12-26T08:31:30.058Z,84.01
2022-12-26T08:33:58.194Z,83.50
2022-12-26T08:36:25.932Z,81.90
2022-12-26T08:38:53.854Z,82.71
2022-12-26T08:41:21.753Z,82.43
2022-12-26T08:44:25.863Z,81.80
2022-12-26T08:46:41.229Z,80.67
2022-12-26T08:49:08.896Z,79.88
2022-12-26T08:51:36.863Z,79.68
2022-12-26T08:54:05.326Z,79.38
2022-12-26T08:56:32.953Z,79.39
2022-12-26T08:59:00.505Z,79.41
2022-12-26T09:01:30.748Z,79.15
2022-12-26T09:04:03.230Z,78.57
2022-12-26T09:06:38.424Z,79.76
2022-12-26T09:09:08.648Z,79.97
2022-12-26T09:11:37.812Z,81.15
2022-12-26T09:14:06.427Z,79.85
2022-12-26T09:16:49.175Z,79.10
2022-12-26T09:19:19.187Z,78.63
2022-12-26T09:21:48.264Z,77.93
2022-12-26T09:24:18.467Z,77.81
2022-12-26T09:26:46.793Z,76.61
2022-12-26T09:29:14.428Z,75.39
2022-12-26T09:31:42.739Z,74.83
2022-12-26T09:34:10.694Z,74.15
2022-12-26T09:36:38.880Z,74.05
2022-12-26T09:39:07.457Z,73.10
2022-12-26T09:42:00.190Z,73.53
2022-12-26T09:44:46.129Z,74.45
2022-12-26T09:47:32.338Z,75.11
2022-12-26T09:50:14.620Z,74.38
2022-12-26T09:52:47.662Z,76.70
2022-12-26T09:55:47.103Z,77.84
2022-12-26T09:58:29.263Z,78.12
2022-12-26T10:01:11.228Z,77.07
2022-12-26T10:03:49.018Z,76.07
2022-12-26T10:06:24.257Z,75.69
2022-12-26T10:09:12.037Z,76.67
2022-12-26T10:11:54.870Z,76.05
2022-12-26T10:14:53.899Z,76.54
2022-12-26T10:17:46.933Z,75.68
2022-12-26T10:20:53.093Z,75.14
2022-12-26T10:23:32.854Z,73.92
2022-12-26T10:26:09.780Z,73.52
2022-12-26T10:28:56.622Z,76.30
2022-12-26T10:31:38.323Z,74.98
2022-12-26T10:34:05.701Z,74.78
2022-12-26T10:36:44.287Z,73.83
2022-12-26T10:39:22.406Z,75.97
2022-12-26T10:41:54.313Z,77.27
2022-12-26T10:44:27.373Z,74.53
2022-12-26T10:47:24.777Z,74.67
2022-12-26T10:49:53.673Z,75.80
2022-12-26T10:52:29.995Z,75.79
2022-12-26T10:55:28.599Z,75.55
2022-12-26T10:57:52.067Z,74.92
2022-12-26T11:00:21.271Z,75.89
2022-12-26T11:03:02.710Z,76.79
2022-12-26T11:06:05.838Z,75.35
2022-12-26T11:08:26.452Z,76.15
2022-12-26T11:11:20.892Z,75.80
2022-12-26T11:14:03.093Z,74.91
2022-12-26T11:16:35.595Z,74.96
2022-12-26T11:19:03.918Z,74.48
2022-12-26T11:21:32.906Z,74.02
2022-12-26T11:24:21.070Z,76.63
2022-12-26T11:26:49.060Z,77.31
2022-12-26T11:29:22.299Z,74.63
2022-12-26T11:31:56.457Z,75.20
2022-12-26T11:34:28.826Z,75.37
2022-12-26T11:36:56.768Z,76.51
2022-12-26T11:39:27.550Z,76.44
2022-12-26T11:41:55.794Z,75.79
2022-12-26T11:44:33.831Z,75.57
2022-12-26T11:47:08.503Z,78.30
2022-12-26T11:49:41.601Z,79.42
2022-12-26T11:52:37.497Z,78.08
2022-12-26T11:55:26.713Z,78.74
2022-12-26T11:58:09.660Z,77.00
2022-12-26T12:01:05.715Z,78.00
2022-12-26T12:03:48.557Z,77.64
2022-12-26T12:06:38.422Z,78.03
2022-12-26T12:09:39.410Z,79.13
2022-12-26T12:12:42.301Z,78.82
2022-12-26T12:15:28.325Z,79.50
2022-12-26T12:18:05.639Z,77.54
2022-12-26T12:20:48.870Z,77.36
2022-12-26T12:23:50.101Z,76.98
2022-12-26T12:26:33.982Z,77.17
2022-12-26T12:29:17.894Z,79.55
2022-12-26T12:32:29.104Z,78.51
2022-12-26T12:35:12.950Z,79.03
2022-12-26T12:38:14.536Z,78.90
2022-12-26T12:41:06.583Z,79.00
2022-12-26T12:44:11.887Z,78.06
2022-12-26T12:46:48.504Z,80.23
2022-12-26T12:49:50.248Z,81.17
2022-12-26T12:52:17.765Z,80.66
2022-12-26T12:55:19.655Z,79.65
2022-12-26T12:57:56.520Z,78.85
2022-12-26T13:00:42.877Z,79.73
2022-12-26T13:03:22.686Z,79.34
2022-12-26T13:06:04.988Z,79.52
2022-12-26T13:09:02.696Z,78.03
2022-12-26T13:11:45.789Z,80.48
2022-12-26T13:14:26.711Z,80.73
2022-12-26T13:17:04.855Z,80.63
2022-12-26T13:19:40.675Z,79.37
2022-12-26T13:22:17.101Z,79.05
2022-12-26T13:24:51.168Z,80.67
2022-12-26T13:27:24.717Z,79.82
2022-12-26T13:29:53.944Z,78.99
2022-12-26T13:32:24.537Z,79.69
2022-12-26T13:34:55.421Z,80.47
2022-12-26T13:37:32.658Z,80.67
2022-12-26T13:40:01.887Z,81.68
2022-12-26T13:43:27.058Z,81.55
2022-12-26T13:45:58.089Z,82.59
2022-12-26T13:48:26.117Z,81.31
2022-12-26T13:50:56.423Z,79.67
2022-12-26T13:53:24.378Z,80.22
2022-12-26T13:55:54.058Z,80.01
2022-12-26T13:58:49.245Z,80.03
2022-12-26T14:01:28.922Z,78.28
2022-12-26T14:04:21.960Z,78.66
2022-12-26T14:07:07.642Z,78.92
2022-12-26T14:09:54.043Z,78.82
2022-12-26T14:12:43.212Z,78.44
2022-12-26T14:15:38.601Z,78.83
2022-12-26T14:18:51.095Z,79.00
2022-12-26T14:21:19.108Z,79.52
2022-12-26T14:23:57.048Z,79.97
2022-12-26T14:26:56.196Z,80.01
2022-12-26T14:29:34.489Z,79.90
2022-12-26T14:32:08.346Z,80.24
2022-12-26T14:34:47.953Z,80.48
2022-12-26T14:37:54.469Z,81.01
2022-12-26T14:40:36.523Z,81.21
2022-12-26T14:43:12.041Z,81.45
2022-12-26T14:45:47.301Z,81.12
2022-12-26T14:48:15.396Z,81.75
2022-12-26T14:50:45.473Z,80.71
2022-12-26T14:53:27.395Z,81.73
2022-12-26T14:55:56.812Z,81.80
2022-12-26T14:58:30.545Z,81.69
2022-12-26T15:01:12.889Z,82.20
2022-12-26T15:04:02.710Z,83.94
2022-12-26T15:06:54.831Z,82.98
2022-12-26T15:09:59.958Z,82.56
2022-12-26T15:13:07.806Z,84.61
2022-12-26T15:16:10.572Z,85.79
2022-12-26T15:18:50.473Z,83.54
2022-12-26T15:21:55.753Z,84.14
2022-12-26T15:28:27.737Z,84.48
2022-12-26T15:31:10.635Z,85.76
2022-12-26T15:33:47.551Z,86.55
2022-12-26T15:36:46.931Z,84.71
2022-12-26T15:39:36.095Z,83.65
2022-12-26T15:42:39.484Z,84.93
2022-12-26T15:45:26.163Z,85.66
2022-12-26T15:47:59.871Z,85.82
2022-12-26T15:50:36.597Z,85.92
2022-12-26T15:53:43.579Z,86.78
2022-12-26T15:56:17.127Z,86.07
2022-12-26T15:59:33.019Z,87.63
2022-12-26T16:02:01.272Z,85.50
2022-12-26T16:04:39.199Z,86.58
2022-12-26T16:07:29.802Z,87.44
2022-12-26T16:09:58.385Z,87.75
2022-12-26T16:12:29.314Z,87.22
2022-12-26T16:15:01.646Z,86.67
2022-12-26T16:17:29.436Z,87.27
2022-12-26T16:19:59.022Z,87.81
2022-12-26T16:22:48.377Z,87.72
2022-12-26T16:25:23.119Z,87.46
2022-12-26T16:27:54.916Z,88.35
2022-12-26T16:30:26.866Z,88.41
2022-12-26T16:32:55.335Z,87.59
2022-12-26T16:35:27.569Z,88.45
2022-12-26T16:37:57.954Z,88.74
2022-12-26T16:40:31.813Z,88.98
2022-12-26T16:43:07.284Z,87.06
2022-12-26T16:45:38.207Z,86.88
2022-12-26T16:48:12.121Z,87.17
2022-12-26T16:50:51.026Z,86.50
2022-12-26T16:53:36.345Z,86.20
2022-12-26T16:56:32.845Z,87.12
2022-12-26T16:59:19.247Z,89.42
2022-12-26T17:01:54.063Z,89.03
2022-12-26T17:04:24.337Z,90.21
2022-12-26T17:07:08.361Z,89.52
2022-12-26T17:09:49.822Z,86.30
2022-12-26T17:12:22.851Z,86.79
2022-12-26T17:14:52.113Z,87.05
2022-12-26T17:17:22.986Z,88.58
2022-12-26T17:19:54.403Z,88.24
2022-12-26T17:22:33.794Z,88.92
2022-12-26T17:25:22.055Z,87.46
2022-12-26T17:28:09.934Z,88.97
2022-12-26T17:30:42.913Z,87.77
2022-12-26T17:33:28.789Z,88.52
2022-12-26T17:39:12.723Z,88.71
2022-12-26T17:41:54.235Z,88.22
2022-12-26T17:44:35.723Z,87.25
2022-12-26T17:47:17.740Z,86.99
2022-12-26T17:49:46.815Z,87.93
2022-12-26T17:52:17.011Z,88.11
2022-12-26T17:54:45.148Z,89.78
2022-12-26T17:57:21.780Z,88.11
2022-12-26T17:59:51.325Z,88.77
2022-12-26T18:02:20.587Z,90.07
2022-12-26T18:04:50.181Z,90.92
2022-12-26T18:10:00.959Z,87.81
2022-12-26T18:12:28.911Z,86.78
2022-12-26T18:15:02.217Z,86.58
2022-12-26T18:17:33.403Z,86.17
2022-12-26T18:20:03.325Z,86.15
2022-12-26T18:22:31.333Z,85.33
2022-12-26T18:24:58.929Z,84.15
2022-12-26T18:27:32.056Z,85.34
2022-12-26T18:30:01.929Z,85.49
2022-12-26T18:32:33.090Z,84.38
2022-12-26T18:35:01.262Z,85.56
2022-12-26T18:37:30.640Z,87.48
2022-12-26T18:39:58.305Z,87.68
2022-12-26T18:42:27.318Z,87.58
2022-12-26T18:44:55.288Z,86.49
2022-12-26T18:47:23.058Z,85.87
2022-12-26T18:49:51.391Z,87.51
2022-12-26T18:52:19.329Z,86.84
2022-12-26T18:54:46.883Z,87.65
2022-12-26T18:57:20.376Z,88.31
2022-12-26T18:59:48.510Z,86.05
2022-12-26T19:02:18.799Z,86.81
2022-12-26T19:04:49.957Z,87.92
2022-12-26T19:07:20.899Z,87.66
2022-12-26T19:09:51.181Z,88.07
2022-12-26T19:12:25.182Z,87.57
2022-12-26T19:14:53.348Z,84.61
2022-12-26T19:17:21.642Z,84.35
2022-12-26T19:19:49.513Z,85.02
2022-12-26T19:22:17.156Z,84.39
2022-12-26T19:24:45.875Z,83.47
2022-12-26T19:27:13.441Z,84.15
2022-12-26T19:29:41.249Z,85.95
2022-12-26T19:32:09.740Z,84.92
2022-12-26T19:34:37.337Z,84.30
2022-12-26T19:37:05.258Z,84.04
2022-12-26T19:39:33.141Z,85.08
2022-12-26T19:42:00.849Z,87.57
2022-12-26T19:44:30.114Z,87.02
2022-12-26T19:47:11.415Z,90.62
2022-12-26T19:49:41.598Z,87.13
2022-12-26T19:52:13.536Z,89.68
2022-12-26T19:54:41.365Z,90.95
2022-12-26T19:57:10.591Z,89.50
2022-12-26T19:59:38.256Z,88.29
2022-12-26T20:02:06.179Z,89.60
2022-12-26T20:04:34.355Z,91.73
2022-12-26T20:07:02.140Z,93.28
2022-12-26T20:09:30.363Z,94.29
2022-12-26T20:11:58.528Z,91.89
2022-12-26T20:14:27.488Z,90.22
2022-12-26T20:17:07.266Z,90.07
2022-12-26T20:19:36.203Z,89.99
2022-12-26T20:22:04.931Z,89.46
2022-12-26T20:24:33.193Z,90.40
2022-12-26T20:27:01.921Z,89.81
2022-12-26T20:29:29.919Z,89.94
2022-12-26T20:31:57.833Z,92.50
2022-12-26T20:34:26.263Z,92.28
2022-12-26T20:36:53.887Z,90.34
2022-12-26T20:39:22.758Z,88.37
2022-12-26T20:41:51.136Z,89.09
2022-12-26T20:44:19.316Z,89.34
2022-12-26T20:46:47.252Z,89.44
2022-12-26T20:49:15.380Z,89.44
2022-12-26T20:51:44.515Z,90.64
2022-12-26T20:54:14.383Z,91.13
2022-12-26T20:56:43.829Z,91.39
2022-12-26T20:59:11.774Z,91.59
2022-12-26T21:01:40.383Z,92.23
2022-12-26T21:04:15.911Z,90.42
2022-12-26T21:06:45.835Z,88.71
2022-12-26T21:09:14.315Z,87.75
2022-12-26T21:11:45.350Z,89.25
2022-12-26T21:14:17.236Z,89.33
2022-12-26T21:16:47.761Z,88.15
2022-12-26T21:19:17.122Z,88.11
2022-12-26T21:21:47.629Z,87.94
2022-12-26T21:24:17.763Z,87.88
2022-12-26T21:26:46.236Z,88.03
2022-12-26T21:29:20.118Z,88.70
2022-12-26T21:31:48.800Z,87.59
2022-12-26T21:34:18.712Z,87.23
2022-12-26T21:37:06.385Z,87.72
2022-12-26T21:39:36.797Z,87.19
2022-12-26T21:42:06.317Z,85.13
2022-12-26T21:44:35.908Z,85.73
2022-12-26T21:47:05.263Z,85.98
2022-12-26T21:49:32.954Z,86.49
2022-12-26T21:52:01.531Z,86.13
2022-12-26T21:54:49.309Z,85.33
2022-12-26T21:57:18.606Z,87.03
2022-12-26T21:59:58.776Z,86.42
2022-12-26T22:02:54.131Z,87.29
2022-12-26T22:05:25.989Z,86.80
2022-12-26T22:08:01.508Z,86.99
2022-12-26T22:10:50.650Z,87.11
2022-12-26T22:13:19.824Z,87.88
2022-12-26T22:16:03.428Z,87.60
2022-12-26T22:18:39.055Z,87.93
2022-12-26T22:21:07.089Z,89.06
2022-12-26T22:23:35.282Z,89.69
2022-12-26T22:26:03.455Z,88.77
2022-12-26T22:28:31.677Z,87.34
2022-12-26T22:31:00.379Z,86.21
2022-12-26T22:33:29.389Z,86.98
2022-12-26T22:36:05.643Z,86.68
2022-12-26T22:38:34.264Z,86.88
2022-12-26T22:41:02.990Z,85.84
2022-12-26T22:43:32.699Z,84.73
2022-12-26T22:46:00.300Z,86.25
2022-12-26T22:48:28.564Z,87.49
2022-12-26T22:50:56.277Z,84.63
2022-12-26T22:53:25.396Z,84.33
2022-12-26T22:55:58.637Z,83.73
2022-12-26T22:58:27.292Z,84.00
2022-12-26T23:00:55.679Z,83.67
2022-12-26T23:03:23.826Z,82.56
2022-12-26T23:05:52.351Z,81.92
2022-12-26T23:08:26.318Z,81.46
2022-12-26T23:10:56.841Z,81.19
2022-12-26T23:13:25.511Z,80.87
2022-12-26T23:16:09.733Z,80.79
2022-12-26T23:19:10.123Z,80.50
2022-12-26T23:21:40.381Z,81.24
2022-12-26T23:24:21.228Z,81.19
2022-12-26T23:27:20.950Z,80.96
2022-12-26T23:30:08.506Z,79.56
2022-12-26T23:32:37.440Z,79.73
2022-12-26T23:35:07.171Z,80.88
2022-12-26T23:37:34.749Z,80.24
2022-12-26T23:40:03.164Z,79.89
2022-12-26T23:42:31.136Z,80.16
2022-12-26T23:44:58.869Z,80.14
2022-12-26T23:47:26.515Z,80.36
2022-12-26T23:49:54.362Z,80.52
2022-12-26T23:52:28.280Z,81.17
2022-12-26T23:54:58.371Z,81.07
2022-12-26T23:57:26.380Z,80.89
2022-12-26T23:59:54.066Z,82.39
